Accueil
METAR-TAF:

METAR-TAF

Aéroports :

Aéroport international de Wellington

Wellington, Nouvelle-Zélande

latitude: 41-20S, longitude: 174-48E, altitude: 12 m

Observation

Le bulletin a été fait il y a 21 minutes, à 04:00 UTC
Vent 9 kt de nord
Température 12°C
Humidité 71%
Pression 1013 hPa
Visibilité 10 km ou plus

METAR: NZWN 230400Z AUTO 35009KT 9999 NCD 12/07 Q1013 NOSIG

Heure: 16:21 (04:21 UTC)

Prévision

Le bulletin a été fait il y a 5 heures et 20 minutes, à 23:01 UTC
Prévision valable du 23 à 00 UTC au 24 à 00 UTC
Vent 15 kt de nord/nord-ouest
Visibilité 10 km ou plus
Nuages épars à une hauteur de 4000 ft
A partir de 23 à 1500 UTC
Vent 15 kt de nord/nord-ouest avec des rafales jusqu'à 25 kt
Visibilité 10 km ou plus
Nuages fragmentés à une hauteur de 3000 ft
faibles averses de pluie

TAF: NZWN 222301Z 2300/2400 34015KT 9999 SCT040 FM231500 34015G25KT 9999 -SHRA BKN030

Observations et prévisions météorologiques de plus de 4000 aéroports (messages METAR et TAF).

Les stations disponibles sont représentées par des disques jaunes et rouges sur la carte.

Passer la souris dessus pour voir le nom de la station.

Cliquer dessus pour voir les observations et prévisions météorologiques.

Pour changer de carte: cliquez sur les boutons verts avec une croix noire pour zoomer, sur le bouton vert avec un tiret pour effectuer un zoom arrière, ou sur les flèches vertes pour les cartes adjacentes.


METAR-TAF: